Meteo

Meteo


Dettagli e Storico

Webcam

Webcam in aeroporto – Aggiornata ogni minuto
Osservatorio Meteorologico Cocomaro di Cona – Ferrara

NOAA IMAGE

NOAA

Windy

METAR

Aviation Digital Data Service (ADDS)

Output produced by METARs form (0814 UTC 06 March 2021)
found at http://www.aviationweather.gov/metar/data/
 
METAR text: LIPF 060755Z 08006KT 9999 SCT080 08/05 Q1028 RMK SCT VIS MIN 9999
Conditions at: LIPF (FERRARA (AUT) , IT) observed 0755 UTC 06 March 2021
Temperature: 8.0°C (46°F)
Dewpoint: 5.0°C (41°F) [RH = 81%]
Pressure (altimeter): 30.35 inches Hg (1028.0 mb)
Winds: from the E (80 degrees) at 7 MPH (6 knots; 3.1 m/s)
Visibility: 6 or more miles (10+ km)
Ceiling: at least 12,000 feet AGL
Clouds: scattered clouds at 8000 feet AGL
Weather: no significant weather observed at this time

METAR text: LIPE 060750Z 08007KT 8000 FEW014 BKN022 06/06 Q1028
Conditions at: LIPE (BOLOGNA/BORGO (A, IT) observed 0750 UTC 06 March 2021
Temperature: 6.0°C (43°F)
Dewpoint: 6.0°C (43°F) [RH = 100%]
Pressure (altimeter): 30.35 inches Hg (1028.0 mb)
Winds: from the E (80 degrees) at 8 MPH (7 knots; 3.6 m/s)
Visibility: 5 miles ( 8 km)
Ceiling: 2200 feet AGL
Clouds: few clouds at 1400 feet AGL
broken clouds at 2200 feet AGL
Weather: no significant weather observed at this time

Forecast for: LIPE (BOLOGNA/BORGO (A, IT)
Text: TAF LIPE 060500Z 0606/0706 10012KT 8000 SCT010
Forecast period: 0600 to 1700 UTC 06 March 2021
Forecast type: FROM: standard forecast or significant change
Winds: from the E (100 degrees) at 14 MPH (12 knots; 6.2 m/s)
Visibility: 5 miles (8 km)
Ceiling: at least 12,000 feet AGL
Clouds: scattered clouds at 1000 feet AGL
Weather: no significant weather forecast for this period
Text: TEMPO 0606/0609 4000 RA
Forecast period: 0600 to 0900 UTC 06 March 2021
Forecast type: TEMPORARY: The following changes expected for less than half the time period
Visibility: 2.49 miles (4.01 km)
Ceiling: unknown
Clouds: missing
Weather: RA  (moderate rain)
Text: BECMG 0617/0619 VRB05KT
Forecast period: 1700 UTC 06 March 2021 to 0600 UTC 07 March 2021
Forecast type: BECOMING: Conditions expected to become as follows by 1900 UTC 06 March 2021
Winds: variable direction winds at 6 MPH (5 knots; 2.6 m/s)
Visibility: 5 miles (8 km)
Ceiling: at least 12,000 feet AGL
Clouds: scattered clouds at 1000 feet AGL
Weather: no significant weather forecast for this period

METAR text: LIPX 060750Z 08011KT 9999 BKN065 06/M00 Q1029
Conditions at: LIPX (VILLAFRANCA(CV/M, IT) observed 0750 UTC 06 March 2021
Temperature: 6.0°C (43°F)
Dewpoint: 0.0°C (32°F) [RH = 65%]
Pressure (altimeter): 30.38 inches Hg (1029.0 mb)
Winds: from the E (80 degrees) at 13 MPH (11 knots; 5.7 m/s)
Visibility: 6 or more miles (10+ km)
Ceiling: 6500 feet AGL
Clouds: broken clouds at 6500 feet AGL
Weather: no significant weather observed at this time

Forecast for: LIPX (VILLAFRANCA(CV/M, IT)
Text: TAF LIPX 060500Z 0606/0615 12014KT 8000 SCT050
Forecast period: 0600 to 1500 UTC 06 March 2021
Forecast type: FROM: standard forecast or significant change
Winds: from the ESE (120 degrees) at 16 MPH (14 knots; 7.2 m/s)
Visibility: 5 miles (8 km)
Ceiling: at least 12,000 feet AGL
Clouds: scattered clouds at 5000 feet AGL
Weather: no significant weather forecast for this period
Text: TEMPO 0606/0609 4000 SHRA
Forecast period: 0600 to 0900 UTC 06 March 2021
Forecast type: TEMPORARY: The following changes expected for less than half the time period
Visibility: 2.49 miles (4.01 km)
Ceiling: unknown
Clouds: missing
Weather: SHRA  (rain showers)

METAR text: LIPZ 060750Z 05011KT 9999 SCT070 05/M01 Q1030 NOSIG
Conditions at: LIPZ (VENEZIA/TESSERA , IT) observed 0750 UTC 06 March 2021
Temperature: 5.0°C (41°F)
Dewpoint: -1.0°C (30°F) [RH = 65%]
Pressure (altimeter): 30.41 inches Hg (1030.0 mb)
Winds: from the NE (50 degrees) at 13 MPH (11 knots; 5.7 m/s)
Visibility: 6 or more miles (10+ km)
Ceiling: at least 12,000 feet AGL
Clouds: scattered clouds at 7000 feet AGL
Weather: no significant weather observed at this time

Forecast for: LIPZ (VENEZIA/TESSERA , IT)
Text: TAF LIPZ 060500Z 0606/0712 08015KT 9999 SCT030
Forecast period: 0600 to 1700 UTC 06 March 2021
Forecast type: FROM: standard forecast or significant change
Winds: from the E (80 degrees) at 17 MPH (15 knots; 7.7 m/s)
Visibility: 6 or more miles (10+ km)
Ceiling: at least 12,000 feet AGL
Clouds: scattered clouds at 3000 feet AGL
Weather: no significant weather forecast for this period
Text: BECMG 0617/0619 06005KT
Forecast period: 1700 UTC 06 March 2021 to 1200 UTC 07 March 2021
Forecast type: BECOMING: Conditions expected to become as follows by 1900 UTC 06 March 2021
Winds: from the ENE (60 degrees) at 6 MPH (5 knots; 2.6 m/s)
Visibility: 6 or more miles (10+ km)
Ceiling: at least 12,000 feet AGL
Clouds: scattered clouds at 3000 feet AGL
Weather: no significant weather forecast for this period